createdAt,value
2019-05-09T00:00:38.130Z,57.41
2019-05-09T00:03:09.047Z,57.61
2019-05-09T00:05:39.777Z,57.89
2019-05-09T00:08:10.686Z,57.99
2019-05-09T00:10:44.222Z,57.92
2019-05-09T00:13:14.034Z,57.79
2019-05-09T00:15:45.878Z,58.15
2019-05-09T00:18:17.019Z,57.99
2019-05-09T00:20:49.657Z,58.50
2019-05-09T00:23:20.326Z,58.69
2019-05-09T00:25:53.656Z,58.52
2019-05-09T00:28:25.263Z,58.98
2019-05-09T00:30:57.852Z,59.18
2019-05-09T00:33:34.298Z,59.18
2019-05-09T00:36:05.296Z,59.50
2019-05-09T00:38:37.593Z,59.86
2019-05-09T00:41:09.709Z,59.91
2019-05-09T00:43:43.608Z,60.20
2019-05-09T00:46:23.634Z,60.05
2019-05-09T00:49:04.908Z,60.52
2019-05-09T00:51:35.538Z,61.03
2019-05-09T00:54:06.976Z,61.12
2019-05-09T00:56:37.644Z,61.24
2019-05-09T00:59:08.585Z,61.87
2019-05-09T01:01:39.546Z,62.84
2019-05-09T01:04:10.477Z,62.98
2019-05-09T01:06:43.448Z,63.00
2019-05-09T01:09:14.155Z,63.46
2019-05-09T01:11:45.156Z,63.50
2019-05-09T01:14:16.085Z,64.09
2019-05-09T01:16:47.082Z,64.83
2019-05-09T01:19:18.036Z,64.44
2019-05-09T01:21:48.776Z,64.87
2019-05-09T01:24:19.809Z,65.06
2019-05-09T01:26:50.720Z,66.05
2019-05-09T01:29:23.051Z,66.86
2019-05-09T01:31:55.802Z,67.44
2019-05-09T01:34:28.400Z,67.34
2019-05-09T01:37:06.524Z,68.08
2019-05-09T01:39:37.774Z,68.62
2019-05-09T01:42:08.481Z,68.91
2019-05-09T01:44:39.446Z,69.60
2019-05-09T01:47:10.400Z,70.15
2019-05-09T01:49:43.018Z,70.41
2019-05-09T01:52:13.853Z,70.17
2019-05-09T01:54:46.199Z,70.34
2019-05-09T01:57:16.947Z,69.59
2019-05-09T01:59:48.877Z,70.14
2019-05-09T02:02:19.571Z,70.77
2019-05-09T02:04:53.310Z,71.48
2019-05-09T02:07:24.078Z,71.61
2019-05-09T02:09:55.048Z,70.96
2019-05-09T02:12:25.956Z,71.07
2019-05-09T02:15:03.728Z,71.38
2019-05-09T02:18:00.678Z,71.00
2019-05-09T02:20:24.168Z,70.49
2019-05-09T02:22:54.968Z,70.42
2019-05-09T02:25:25.907Z,70.48
2019-05-09T02:27:56.854Z,71.51
2019-05-09T02:30:27.640Z,71.59
2019-05-09T02:32:58.600Z,71.79
2019-05-09T02:35:38.830Z,71.73
2019-05-09T02:38:02.203Z,71.88
2019-05-09T02:40:32.880Z,72.55
2019-05-09T02:43:03.666Z,72.44
2019-05-09T02:45:41.870Z,72.81
2019-05-09T02:48:12.597Z,72.61
2019-05-09T02:50:43.521Z,72.45
2019-05-09T02:53:14.511Z,72.92
2019-05-09T02:55:45.433Z,72.70
2019-05-09T02:58:20.416Z,72.83
2019-05-09T03:01:00.751Z,72.42
2019-05-09T03:03:33.104Z,73.70
2019-05-09T03:06:04.143Z,71.78
2019-05-09T03:08:38.215Z,72.80
2019-05-09T03:11:09.739Z,73.20
2019-05-09T03:13:40.462Z,73.54
2019-05-09T03:16:12.810Z,73.45
2019-05-09T03:18:43.441Z,73.42
2019-05-09T03:21:19.126Z,73.55
2019-05-09T03:23:50.243Z,74.07
2019-05-09T03:26:22.586Z,74.32
2019-05-09T03:29:11.376Z,74.08
2019-05-09T03:31:43.626Z,74.08
2019-05-09T03:34:14.305Z,74.41
2019-05-09T03:36:47.574Z,74.40
2019-05-09T03:39:18.529Z,74.84
2019-05-09T03:41:49.623Z,75.13
2019-05-09T03:44:20.591Z,75.16
2019-05-09T03:46:57.901Z,74.81
2019-05-09T03:49:28.487Z,75.94
2019-05-09T03:52:00.650Z,75.75
2019-05-09T03:54:31.627Z,75.52
2019-05-09T03:57:04.910Z,75.24
2019-05-09T03:59:37.527Z,75.19
2019-05-09T04:02:10.257Z,75.23
2019-05-09T04:04:41.229Z,75.40
2019-05-09T04:07:11.901Z,75.18
2019-05-09T04:09:42.969Z,74.93
2019-05-09T04:12:14.057Z,74.84
2019-05-09T04:14:47.936Z,74.82
2019-05-09T04:17:20.258Z,74.80
2019-05-09T04:19:51.345Z,75.04
2019-05-09T04:22:23.115Z,75.12
2019-05-09T04:24:54.416Z,74.72
2019-05-09T04:27:29.854Z,74.82
2019-05-09T04:30:00.665Z,74.99
2019-05-09T04:32:31.535Z,74.58
2019-05-09T04:35:02.232Z,74.13
2019-05-09T04:37:33.750Z,74.67
2019-05-09T04:40:08.121Z,74.17
2019-05-09T04:42:42.967Z,74.48
2019-05-09T04:45:17.250Z,74.40
2019-05-09T04:47:47.898Z,74.41
2019-05-09T04:50:23.470Z,74.34
2019-05-09T04:52:51.744Z,74.38
2019-05-09T04:55:27.243Z,74.75
2019-05-09T04:58:00.223Z,74.98
2019-05-09T05:00:35.084Z,75.23
2019-05-09T05:03:07.951Z,74.41
2019-05-09T05:05:40.140Z,74.00
2019-05-09T05:08:12.078Z,73.82
2019-05-09T05:10:42.751Z,73.80
2019-05-09T05:13:24.137Z,73.57
2019-05-09T05:15:47.507Z,73.37
2019-05-09T05:18:20.280Z,73.16
2019-05-09T05:20:52.209Z,73.24
2019-05-09T05:23:24.908Z,72.96
2019-05-09T05:25:58.017Z,73.15
2019-05-09T05:28:28.771Z,72.86
2019-05-09T05:31:00.456Z,72.29
2019-05-09T05:33:41.668Z,72.11
2019-05-09T05:36:20.005Z,71.67
2019-05-09T05:38:50.786Z,71.69
2019-05-09T05:41:21.483Z,71.21
2019-05-09T05:43:52.222Z,71.13
2019-05-09T05:46:22.670Z,71.23
2019-05-09T05:48:57.802Z,71.52
2019-05-09T05:51:30.926Z,71.45
2019-05-09T05:54:02.755Z,72.04
2019-05-09T05:56:33.543Z,72.34
2019-05-09T05:59:04.594Z,72.28
2019-05-09T06:01:38.081Z,71.87
2019-05-09T06:04:08.288Z,70.08
2019-05-09T06:06:39.334Z,70.14
2019-05-09T06:09:10.920Z,67.48
2019-05-09T06:11:42.142Z,67.67
2019-05-09T06:14:12.852Z,65.47
2019-05-09T06:16:43.532Z,64.83
2019-05-09T06:19:14.219Z,64.63
2019-05-09T06:21:45.142Z,64.35
2019-05-09T06:24:17.723Z,63.26
2019-05-09T06:26:48.337Z,63.56
2019-05-09T06:29:19.405Z,62.73
2019-05-09T06:31:50.599Z,62.73
2019-05-09T06:34:21.308Z,62.42
2019-05-09T06:36:52.384Z,62.46
2019-05-09T06:39:23.238Z,62.90
2019-05-09T06:41:53.913Z,62.00
2019-05-09T06:44:28.221Z,62.08
2019-05-09T06:47:00.819Z,61.32
2019-05-09T06:49:33.171Z,61.46
2019-05-09T06:52:04.229Z,61.41
2019-05-09T06:54:41.777Z,61.02
2019-05-09T06:57:13.401Z,60.25
2019-05-09T06:59:44.850Z,59.89
2019-05-09T07:02:20.099Z,59.88
2019-05-09T07:04:52.779Z,59.32
2019-05-09T07:07:34.021Z,58.48
2019-05-09T07:10:07.953Z,58.52
2019-05-09T07:12:38.739Z,57.20
2019-05-09T07:15:09.759Z,57.05
2019-05-09T07:17:40.448Z,57.04
2019-05-09T07:20:11.468Z,56.93
2019-05-09T07:22:48.123Z,56.27
2019-05-09T07:25:23.879Z,57.77
2019-05-09T07:27:54.565Z,57.26
2019-05-09T07:30:43.550Z,58.29
2019-05-09T07:33:19.551Z,56.91
2019-05-09T07:35:50.794Z,56.86
2019-05-09T07:38:31.537Z,56.86
2019-05-09T07:41:02.485Z,54.28
2019-05-09T07:43:33.628Z,55.52
2019-05-09T07:46:08.530Z,55.79
2019-05-09T07:48:40.350Z,54.09
2019-05-09T07:51:11.181Z,54.64
2019-05-09T07:53:42.489Z,54.22
2019-05-09T07:56:14.281Z,53.08
2019-05-09T07:58:45.000Z,54.50
2019-05-09T08:01:15.679Z,52.73
2019-05-09T08:03:48.925Z,53.33
2019-05-09T08:06:19.405Z,52.12
2019-05-09T08:08:50.379Z,51.96
2019-05-09T08:11:21.079Z,52.60
2019-05-09T08:13:52.304Z,52.28
2019-05-09T08:16:23.272Z,51.25
2019-05-09T08:18:53.964Z,51.43
2019-05-09T08:21:24.972Z,49.29
2019-05-09T08:23:58.095Z,51.48
2019-05-09T08:26:30.064Z,51.15
2019-05-09T08:29:02.525Z,50.56
2019-05-09T08:31:33.240Z,50.56
2019-05-09T08:34:03.897Z,49.60
2019-05-09T08:36:34.914Z,49.20
2019-05-09T08:39:08.445Z,48.75
2019-05-09T08:41:39.284Z,48.96
2019-05-09T08:44:10.484Z,48.73
2019-05-09T08:46:41.616Z,47.60
2019-05-09T08:49:12.327Z,49.18
2019-05-09T08:52:06.630Z,49.84
2019-05-09T08:54:38.019Z,49.63
2019-05-09T08:57:10.357Z,50.47
2019-05-09T08:59:41.396Z,49.75
2019-05-09T09:02:16.543Z,48.38
2019-05-09T09:04:44.799Z,48.41
2019-05-09T09:07:15.486Z,48.86
2019-05-09T09:09:48.237Z,49.10
2019-05-09T09:12:29.864Z,49.14
2019-05-09T09:14:51.465Z,49.75
2019-05-09T09:17:22.498Z,49.03
2019-05-09T09:19:53.274Z,49.22
2019-05-09T09:22:24.325Z,48.49
2019-05-09T09:24:58.602Z,49.32
2019-05-09T09:27:31.541Z,48.39
2019-05-09T09:30:16.442Z,47.95
2019-05-09T09:32:35.388Z,47.22
2019-05-09T09:35:08.987Z,47.93
2019-05-09T09:37:48.314Z,46.73
2019-05-09T09:40:13.515Z,46.48
2019-05-09T09:42:44.545Z,45.96
2019-05-09T09:45:18.404Z,44.36
2019-05-09T09:47:49.833Z,43.97
2019-05-09T09:50:20.531Z,43.67
2019-05-09T09:52:51.918Z,44.40
2019-05-09T09:55:23.101Z,43.30
2019-05-09T09:57:57.701Z,43.57
2019-05-09T10:01:04.053Z,43.91
2019-05-09T10:03:35.748Z,43.92
2019-05-09T10:06:06.932Z,43.15
2019-05-09T10:08:39.510Z,43.19
2019-05-09T10:11:11.537Z,42.24
2019-05-09T10:13:42.784Z,42.95
2019-05-09T10:16:29.041Z,41.18
2019-05-09T10:18:58.608Z,40.52
2019-05-09T10:21:33.577Z,41.54
2019-05-09T10:24:05.053Z,42.58
2019-05-09T10:26:39.022Z,41.80
2019-05-09T10:29:09.981Z,40.57
2019-05-09T10:31:41.124Z,40.75
2019-05-09T10:34:12.015Z,40.61
2019-05-09T10:36:42.685Z,40.63
2019-05-09T10:39:13.690Z,40.45
2019-05-09T10:41:44.649Z,39.43
2019-05-09T10:44:18.025Z,40.08
2019-05-09T10:47:02.100Z,39.39
2019-05-09T10:49:31.901Z,41.01
2019-05-09T10:52:02.911Z,41.37
2019-05-09T10:54:34.891Z,41.77
2019-05-09T10:57:05.681Z,42.43
2019-05-09T10:59:37.659Z,42.79
2019-05-09T11:02:09.515Z,43.39
2019-05-09T11:04:44.175Z,44.86
2019-05-09T11:07:30.632Z,42.75
2019-05-09T11:10:22.605Z,42.58
2019-05-09T11:12:37.162Z,42.80
2019-05-09T11:15:09.159Z,43.06
2019-05-09T11:17:40.163Z,42.21
2019-05-09T11:20:12.125Z,42.82
2019-05-09T11:22:43.008Z,43.44
2019-05-09T11:25:13.939Z,43.91
2019-05-09T11:27:44.605Z,42.03
2019-05-09T11:30:17.666Z,40.34
2019-05-09T11:32:48.541Z,39.38
2019-05-09T11:35:19.537Z,38.38
2019-05-09T11:37:50.794Z,36.77
2019-05-09T11:40:21.465Z,37.19
2019-05-09T11:42:52.419Z,37.33
2019-05-09T11:45:23.379Z,37.69
2019-05-09T11:47:54.428Z,35.81
2019-05-09T11:50:25.146Z,35.53
2019-05-09T11:52:56.205Z,37.58
2019-05-09T11:55:32.396Z,37.70
2019-05-09T11:57:59.591Z,37.85
2019-05-09T12:00:30.284Z,38.64
2019-05-09T12:03:00.972Z,38.44
2019-05-09T12:05:31.993Z,39.23
2019-05-09T12:08:02.758Z,39.97
2019-05-09T12:10:33.849Z,41.08
2019-05-09T12:13:04.814Z,41.79
2019-05-09T12:15:38.762Z,41.87
2019-05-09T12:18:11.719Z,41.74
2019-05-09T12:20:42.620Z,42.61
2019-05-09T12:23:13.875Z,42.60
2019-05-09T12:25:45.038Z,43.21
2019-05-09T12:28:15.713Z,43.59
2019-05-09T12:30:48.995Z,44.29
2019-05-09T12:33:19.217Z,43.49
2019-05-09T12:36:04.096Z,44.51
2019-05-09T12:38:34.788Z,44.67
2019-05-09T12:41:07.846Z,44.13
2019-05-09T12:43:38.311Z,43.90
2019-05-09T12:46:09.689Z,44.16
2019-05-09T12:48:40.853Z,43.52
2019-05-09T12:51:14.022Z,43.72
2019-05-09T12:53:48.170Z,42.33
2019-05-09T12:56:18.809Z,42.10
2019-05-09T12:58:50.008Z,43.36
2019-05-09T13:01:21.208Z,43.03
2019-05-09T13:03:52.325Z,42.58
2019-05-09T13:06:23.138Z,42.69
2019-05-09T13:08:54.424Z,41.75
2019-05-09T13:11:27.417Z,40.67
2019-05-09T13:13:58.104Z,39.40
2019-05-09T13:16:47.432Z,40.49
2019-05-09T13:19:09.078Z,39.78
2019-05-09T13:21:40.096Z,40.18
2019-05-09T13:24:11.321Z,39.42
2019-05-09T13:26:43.745Z,40.79
2019-05-09T13:29:14.793Z,41.17
2019-05-09T13:31:48.257Z,39.59
2019-05-09T13:34:19.078Z,40.57
2019-05-09T13:36:49.908Z,42.04
2019-05-09T13:39:20.749Z,39.67
2019-05-09T13:41:51.477Z,40.21
2019-05-09T13:44:22.669Z,40.38
2019-05-09T13:46:53.348Z,40.81
2019-05-09T13:49:24.195Z,40.93
2019-05-09T13:52:01.290Z,40.56
2019-05-09T13:54:28.511Z,40.17
2019-05-09T13:57:01.516Z,38.34
2019-05-09T13:59:33.614Z,37.43
2019-05-09T14:02:04.773Z,38.60
2019-05-09T14:04:38.846Z,37.64
2019-05-09T14:07:08.498Z,38.24
2019-05-09T14:09:39.415Z,39.41
2019-05-09T14:12:10.638Z,38.88
2019-05-09T14:14:41.558Z,39.43
2019-05-09T14:17:13.899Z,38.58
2019-05-09T14:19:46.857Z,40.35
2019-05-09T14:22:18.620Z,38.13
2019-05-09T14:24:49.315Z,38.72
2019-05-09T14:27:20.186Z,39.22
2019-05-09T14:29:51.200Z,37.50
2019-05-09T14:32:22.226Z,37.58
2019-05-09T14:34:52.990Z,38.05
2019-05-09T14:37:24.112Z,39.81
2019-05-09T14:39:58.833Z,39.49
2019-05-09T14:42:29.049Z,39.00
2019-05-09T14:45:00.311Z,39.27
2019-05-09T14:47:31.484Z,37.82
2019-05-09T14:50:02.181Z,38.88
2019-05-09T14:52:33.369Z,38.74
2019-05-09T14:55:08.249Z,37.97
2019-05-09T14:57:38.936Z,37.75
2019-05-09T15:00:11.735Z,37.58
2019-05-09T15:02:42.675Z,38.23
2019-05-09T15:05:14.023Z,38.45
2019-05-09T15:07:47.663Z,38.48
2019-05-09T15:10:18.936Z,37.37
2019-05-09T15:12:50.068Z,37.02
2019-05-09T15:15:20.951Z,36.96
2019-05-09T15:17:52.129Z,37.49
2019-05-09T15:20:23.402Z,38.13
2019-05-09T15:22:54.053Z,37.30
2019-05-09T15:25:24.965Z,39.31
2019-05-09T15:27:57.975Z,38.54
2019-05-09T15:30:28.865Z,38.31
2019-05-09T15:32:59.659Z,37.85
2019-05-09T15:35:31.162Z,38.64
2019-05-09T15:38:02.331Z,37.80
2019-05-09T15:40:33.216Z,38.22
2019-05-09T15:43:04.377Z,37.81
2019-05-09T15:45:36.922Z,36.92
2019-05-09T15:48:07.776Z,36.81
2019-05-09T15:50:38.410Z,37.78
2019-05-09T15:53:09.258Z,37.13
2019-05-09T15:55:44.012Z,37.59
2019-05-09T15:58:14.948Z,36.62
2019-05-09T16:00:47.828Z,35.83
2019-05-09T16:03:18.782Z,35.72
2019-05-09T16:05:49.818Z,35.54
2019-05-09T16:08:21.713Z,35.47
2019-05-09T16:10:52.884Z,35.60
2019-05-09T16:13:25.150Z,34.88
2019-05-09T16:15:57.578Z,35.71
2019-05-09T16:18:29.430Z,37.14
2019-05-09T16:21:00.199Z,35.06
2019-05-09T16:23:31.021Z,35.53
2019-05-09T16:26:02.083Z,36.13
2019-05-09T16:28:32.995Z,35.61
2019-05-09T16:31:04.083Z,35.95
2019-05-09T16:33:35.091Z,36.19
2019-05-09T16:36:07.481Z,36.21
2019-05-09T16:38:45.689Z,36.35
2019-05-09T16:41:11.234Z,36.19
2019-05-09T16:43:42.216Z,35.70
2019-05-09T16:46:13.048Z,35.71
2019-05-09T16:48:44.806Z,36.33
2019-05-09T16:51:18.185Z,36.49
2019-05-09T16:53:49.873Z,36.37
2019-05-09T16:56:21.408Z,36.12
2019-05-09T16:58:53.954Z,36.80
2019-05-09T17:01:25.035Z,37.38
2019-05-09T17:03:57.522Z,36.85
2019-05-09T17:06:29.210Z,37.53
2019-05-09T17:09:00.826Z,37.32
2019-05-09T17:11:35.321Z,37.41
2019-05-09T17:14:08.273Z,37.62
2019-05-09T17:16:39.841Z,38.02
2019-05-09T17:19:11.186Z,38.12
2019-05-09T17:21:43.494Z,38.59
2019-05-09T17:24:15.910Z,38.45
2019-05-09T17:26:48.836Z,38.28
2019-05-09T17:29:19.691Z,38.11
2019-05-09T17:31:50.778Z,38.56
2019-05-09T17:34:21.831Z,38.49
2019-05-09T17:36:53.110Z,38.30
2019-05-09T17:39:24.147Z,39.52
2019-05-09T17:41:54.915Z,38.22
2019-05-09T17:44:28.095Z,38.72
2019-05-09T17:46:58.382Z,39.14
2019-05-09T17:49:29.671Z,39.73
2019-05-09T17:52:00.946Z,39.85
2019-05-09T17:54:32.130Z,40.95
2019-05-09T17:57:03.499Z,41.22
2019-05-09T17:59:34.673Z,41.85
2019-05-09T18:02:05.525Z,42.40
2019-05-09T18:04:37.851Z,43.04
2019-05-09T18:07:09.264Z,43.34
2019-05-09T18:09:40.456Z,43.76
2019-05-09T18:12:11.642Z,43.99
2019-05-09T18:14:42.763Z,44.48
2019-05-09T18:17:20.218Z,44.67
2019-05-09T18:19:51.012Z,44.98
2019-05-09T18:22:22.048Z,45.08
2019-05-09T18:24:53.093Z,44.94
2019-05-09T18:27:24.202Z,45.30
2019-05-09T18:29:58.108Z,45.16
2019-05-09T18:32:38.343Z,45.54
2019-05-09T18:35:27.819Z,46.00
2019-05-09T18:37:59.496Z,46.47
2019-05-09T18:40:30.742Z,46.61
2019-05-09T18:43:01.518Z,47.00
2019-05-09T18:45:32.255Z,47.40
2019-05-09T18:48:02.937Z,47.63
2019-05-09T18:50:34.000Z,47.82
2019-05-09T18:53:05.110Z,47.83
2019-05-09T18:55:35.913Z,48.02
2019-05-09T18:58:06.786Z,47.93
2019-05-09T19:03:04.888Z,48.36
2019-05-09T19:05:35.686Z,48.17
2019-05-09T19:08:06.867Z,48.21
2019-05-09T19:10:37.693Z,48.32
2019-05-09T19:13:08.737Z,48.72
2019-05-09T19:15:41.665Z,48.65
2019-05-09T19:18:25.808Z,48.47
2019-05-09T19:20:58.629Z,48.49
2019-05-09T19:23:29.761Z,48.43
2019-05-09T19:26:02.466Z,49.05
2019-05-09T19:28:34.679Z,49.09
2019-05-09T19:31:05.382Z,49.22
2019-05-09T19:33:36.481Z,49.03
2019-05-09T19:36:07.691Z,48.97
2019-05-09T19:38:42.393Z,49.02
2019-05-09T19:41:13.378Z,49.11
2019-05-09T19:43:44.398Z,49.61
2019-05-09T19:46:15.484Z,49.55
2019-05-09T19:48:46.485Z,49.79
2019-05-09T19:51:17.510Z,50.13
2019-05-09T19:53:48.483Z,50.63
2019-05-09T19:56:19.224Z,50.27
2019-05-09T19:58:49.912Z,50.26
2019-05-09T20:01:20.643Z,50.53
2019-05-09T20:03:51.670Z,50.08
2019-05-09T20:06:22.627Z,50.06
2019-05-09T20:08:53.461Z,50.89
2019-05-09T20:11:35.346Z,51.30
2019-05-09T20:14:10.436Z,51.44
2019-05-09T20:16:43.147Z,51.24
2019-05-09T20:19:14.890Z,51.93
2019-05-09T20:21:46.325Z,52.73
2019-05-09T20:24:17.465Z,52.59
2019-05-09T20:26:48.626Z,52.69
2019-05-09T20:29:21.269Z,52.90
2019-05-09T20:31:53.064Z,53.45
2019-05-09T20:34:23.770Z,53.82
2019-05-09T20:36:54.547Z,54.21
2019-05-09T20:39:25.485Z,54.38
2019-05-09T20:41:56.702Z,54.15
2019-05-09T20:44:27.938Z,53.11
2019-05-09T20:46:59.281Z,53.05
2019-05-09T20:49:30.527Z,52.80
2019-05-09T20:52:01.773Z,52.97
2019-05-09T20:54:32.930Z,52.79
2019-05-09T20:57:04.281Z,52.81
2019-05-09T20:59:35.513Z,52.89
2019-05-09T21:02:06.820Z,53.01
2019-05-09T21:04:38.179Z,53.06
2019-05-09T21:07:09.038Z,53.05
2019-05-09T21:09:40.289Z,53.19
2019-05-09T21:12:11.502Z,53.53
2019-05-09T21:14:43.771Z,53.92
2019-05-09T21:17:14.945Z,54.20
2019-05-09T21:19:46.787Z,54.56
2019-05-09T21:22:17.727Z,54.75
2019-05-09T21:24:48.694Z,55.33
2019-05-09T21:27:19.934Z,55.42
2019-05-09T21:29:50.793Z,55.76
2019-05-09T21:32:22.401Z,55.90
2019-05-09T21:34:53.844Z,55.88
2019-05-09T21:37:24.593Z,56.06
2019-05-09T21:39:55.284Z,56.23
2019-05-09T21:42:25.948Z,55.94
2019-05-09T21:45:00.060Z,56.91
2019-05-09T21:47:31.008Z,57.00
2019-05-09T21:50:02.083Z,57.04
2019-05-09T21:52:34.438Z,57.09
2019-05-09T21:55:06.826Z,57.45
2019-05-09T21:57:37.759Z,57.62
2019-05-09T22:00:16.358Z,57.63
2019-05-09T22:02:51.241Z,57.81
2019-05-09T22:05:22.361Z,57.79
2019-05-09T22:07:53.365Z,57.83
2019-05-09T22:10:24.015Z,58.03
2019-05-09T22:12:55.034Z,58.36
2019-05-09T22:15:26.063Z,58.48
2019-05-09T22:17:57.261Z,58.65
2019-05-09T22:20:28.263Z,58.94
2019-05-09T22:22:59.288Z,59.55
2019-05-09T22:25:30.336Z,59.74
2019-05-09T22:28:01.001Z,60.20
2019-05-09T22:30:31.681Z,60.41
2019-05-09T22:33:02.337Z,58.61
2019-05-09T22:35:33.113Z,58.86
2019-05-09T22:38:03.802Z,59.73
2019-05-09T22:40:35.461Z,59.48
2019-05-09T22:43:06.538Z,59.60
2019-05-09T22:45:37.898Z,59.78
2019-05-09T22:48:08.910Z,60.23
2019-05-09T22:50:39.662Z,60.89
2019-05-09T22:53:10.626Z,61.08
2019-05-09T22:55:41.845Z,61.57
2019-05-09T22:58:12.511Z,62.20
2019-05-09T23:00:43.258Z,62.50
2019-05-09T23:03:14.040Z,62.49
2019-05-09T23:05:44.747Z,62.73
2019-05-09T23:08:15.851Z,63.01
2019-05-09T23:10:46.497Z,63.07
2019-05-09T23:13:17.594Z,63.40
2019-05-09T23:15:48.630Z,63.42
2019-05-09T23:18:19.646Z,63.27
2019-05-09T23:20:52.083Z,63.32
2019-05-09T23:23:30.701Z,63.64
2019-05-09T23:26:01.797Z,63.61
2019-05-09T23:28:32.910Z,63.73
2019-05-09T23:31:05.235Z,64.06
2019-05-09T23:33:38.084Z,64.02
2019-05-09T23:36:09.135Z,64.23
2019-05-09T23:38:58.216Z,64.66
2019-05-09T23:41:29.787Z,64.73
2019-05-09T23:44:00.506Z,64.61
2019-05-09T23:46:31.510Z,64.84
2019-05-09T23:49:02.556Z,64.86
2019-05-09T23:51:49.628Z,64.89
2019-05-09T23:54:46.712Z,65.32
2019-05-09T23:57:31.203Z,65.28
